Schedule Details


Flight Number: CTN669
Departure: Cilipi (LDDU) at 21:20
Arrival: Franjo Tudman (LDZA) at 22:15
Route: MADOS L187 VRANA UL187 KOMAR L187 TEBLI

Weather Information
LDDU 201000Z 02012KT 350V050 CAVOK 16/04 Q1022 BECMG 19007KT
LDZA 201000Z 04014KT 010V070 CAVOK 10/M02 Q1032 NOSIG
Schedule Frequency

Route Map